sensor_id;sensor_type;location;lat;lon;timestamp;pressure;altitude;pressure_sealevel;temperature;humidity
3206;BME280;1615;53.602;11.418;2023-04-01T00:02:16;99234.09;;;12.78;100.00
3206;BME280;1615;53.602;11.418;2023-04-01T00:04:42;99232.28;;;12.82;100.00
3206;BME280;1615;53.602;11.418;2023-04-01T00:07:08;99231.13;;;12.83;100.00
3206;BME280;1615;53.602;11.418;2023-04-01T00:09:33;99214.75;;;12.74;100.00
3206;BME280;1615;53.602;11.418;2023-04-01T00:11:59;99225.19;;;12.81;100.00
3206;BME280;1615;53.602;11.418;2023-04-01T00:14:24;99226.56;;;12.75;100.00
3206;BME280;1615;53.602;11.418;2023-04-01T00:16:50;99233.66;;;12.76;100.00
3206;BME280;1615;53.602;11.418;2023-04-01T00:19:15;99230.91;;;12.76;100.00
3206;BME280;1615;53.602;11.418;2023-04-01T00:21:41;99200.78;;;12.55;100.00
3206;BME280;1615;53.602;11.418;2023-04-01T00:24:06;99232.75;;;12.72;100.00
3206;BME280;1615;53.602;11.418;2023-04-01T00:26:32;99236.31;;;12.72;100.00
3206;BME280;1615;53.602;11.418;2023-04-01T00:28:58;99238.00;;;12.77;100.00
3206;BME280;1615;53.602;11.418;2023-04-01T00:31:24;99232.41;;;12.73;100.00
3206;BME280;1615;53.602;11.418;2023-04-01T00:33:51;99232.41;;;12.73;100.00
3206;BME280;1615;53.602;11.418;2023-04-01T00:36:19;99233.19;;;12.74;100.00
3206;BME280;1615;53.602;11.418;2023-04-01T00:38:45;99240.31;;;12.75;100.00
3206;BME280;1615;53.602;11.418;2023-04-01T00:41:12;99237.09;;;12.73;100.00
3206;BME280;1615;53.602;11.418;2023-04-01T00:43:41;99046.59;;;11.61;100.00
3206;BME280;1615;53.602;11.418;2023-04-01T00:46:06;99231.13;;;12.83;100.00
3206;BME280;1615;53.602;11.418;2023-04-01T00:48:38;99230.56;;;12.77;100.00
3206;BME280;1615;53.602;11.418;2023-04-01T00:51:20;99215.78;;;12.70;100.00
3206;BME280;1615;53.602;11.418;2023-04-01T00:53:51;99236.50;;;12.79;100.00
3206;BME280;1615;53.602;11.418;2023-04-01T00:56:27;99164.34;;;12.34;100.00
3206;BME280;1615;53.602;11.418;2023-04-01T00:59:00;99228.38;;;12.83;100.00
3206;BME280;1615;53.602;11.418;2023-04-01T01:01:27;99146.16;;;12.30;100.00
3206;BME280;1615;53.602;11.418;2023-04-01T01:03:54;99234.78;;;12.87;100.00
3206;BME280;1615;53.602;11.418;2023-04-01T01:06:46;99229.75;;;12.89;100.00
3206;BME280;1615;53.602;11.418;2023-04-01T01:15:05;99235.72;;;13.03;100.00
3206;BME280;1615;53.602;11.418;2023-04-01T01:32:11;99239.50;;;12.98;100.00
3206;BME280;1615;53.602;11.418;2023-04-01T01:37:35;99244.22;;;12.98;100.00
3206;BME280;1615;53.602;11.418;2023-04-01T01:40:05;99142.06;;;12.24;100.00
3206;BME280;1615;53.602;11.418;2023-04-01T01:42:35;99243.59;;;12.92;100.00
3206;BME280;1615;53.602;11.418;2023-04-01T01:45:04;99247.38;;;12.88;100.00
3206;BME280;1615;53.602;11.418;2023-04-01T01:47:30;99252.44;;;12.86;100.00
3206;BME280;1615;53.602;11.418;2023-04-01T01:49:56;99251.53;;;12.82;100.00
3206;BME280;1615;53.602;11.418;2023-04-01T01:52:23;99123.28;;;12.02;100.00
3206;BME280;1615;53.602;11.418;2023-04-01T01:54:50;99144.00;;;12.11;100.00
3206;BME280;1615;53.602;11.418;2023-04-01T01:57:18;99249.22;;;12.72;100.00
3206;BME280;1615;53.602;11.418;2023-04-01T01:59:45;99255.41;;;12.69;100.00
3206;BME280;1615;53.602;11.418;2023-04-01T02:02:13;99253.69;;;12.76;100.00
3206;BME280;1615;53.602;11.418;2023-04-01T02:04:40;99261.16;;;12.64;100.00
3206;BME280;1615;53.602;11.418;2023-04-01T02:07:13;99261.25;;;12.55;100.00
3206;BME280;1615;53.602;11.418;2023-04-01T02:09:41;99261.34;;;12.47;100.00
3206;BME280;1615;53.602;11.418;2023-04-01T02:12:09;99257.13;;;12.37;100.00
3206;BME280;1615;53.602;11.418;2023-04-01T02:14:46;99261.78;;;12.13;100.00
3206;BME280;1615;53.602;11.418;2023-04-01T02:17:16;99325.59;;;12.10;100.00
3206;BME280;1615;53.602;11.418;2023-04-01T02:19:49;99276.38;;;12.05;100.00
3206;BME280;1615;53.602;11.418;2023-04-01T02:22:18;99272.00;;;11.92;100.00
3206;BME280;1615;53.602;11.418;2023-04-01T02:24:45;99273.13;;;11.79;100.00
3206;BME280;1615;53.602;11.418;2023-04-01T02:27:11;99274.44;;;11.73;100.00
3206;BME280;1615;53.602;11.418;2023-04-01T02:29:37;99277.25;;;11.64;100.00
3206;BME280;1615;53.602;11.418;2023-04-01T02:32:04;99279.47;;;11.71;100.00
3206;BME280;1615;53.602;11.418;2023-04-01T02:34:31;99236.44;;;11.42;100.00
3206;BME280;1615;53.602;11.418;2023-04-01T02:36:56;99289.50;;;11.67;100.00
3206;BME280;1615;53.602;11.418;2023-04-01T02:39:22;99295.38;;;11.57;100.00
3206;BME280;1615;53.602;11.418;2023-04-01T02:41:48;99303.94;;;11.64;100.00
3206;BME280;1615;53.602;11.418;2023-04-01T02:44:14;99293.41;;;11.66;100.00
3206;BME280;1615;53.602;11.418;2023-04-01T02:46:40;99294.25;;;11.58;100.00
3206;BME280;1615;53.602;11.418;2023-04-01T02:49:06;99304.63;;;11.52;100.00
3206;BME280;1615;53.602;11.418;2023-04-01T02:51:31;99241.44;;;10.99;100.00
3206;BME280;1615;53.602;11.418;2023-04-01T02:53:57;99300.28;;;11.31;100.00
3206;BME280;1615;53.602;11.418;2023-04-01T02:56:22;99308.16;;;11.32;100.00
3206;BME280;1615;53.602;11.418;2023-04-01T02:58:47;99315.28;;;11.33;100.00
3206;BME280;1615;53.602;11.418;2023-04-01T03:01:13;99308.97;;;11.33;100.00
3206;BME280;1615;53.602;11.418;2023-04-01T03:03:39;99317.59;;;11.23;100.00
3206;BME280;1615;53.602;11.418;2023-04-01T03:06:09;99321.09;;;11.03;100.00
3206;BME280;1615;53.602;11.418;2023-04-01T03:08:35;99328.22;;;11.04;100.00
3206;BME280;1615;53.602;11.418;2023-04-01T03:11:00;99324.03;;;10.98;100.00
3206;BME280;1615;53.602;11.418;2023-04-01T03:13:26;99309.00;;;10.75;100.00
3206;BME280;1615;53.602;11.418;2023-04-01T03:15:51;99330.28;;;10.78;100.00
3206;BME280;1615;53.602;11.418;2023-04-01T03:18:17;99229.03;;;9.98;100.00
3206;BME280;1615;53.602;11.418;2023-04-01T03:20:42;99332.41;;;10.64;100.00
3206;BME280;1615;53.602;11.418;2023-04-01T03:23:08;99331.31;;;10.56;100.00
3206;BME280;1615;53.602;11.418;2023-04-01T03:25:33;99303.19;;;10.30;100.00
3206;BME280;1615;53.602;11.418;2023-04-01T03:27:59;99339.38;;;10.53;100.00
3206;BME280;1615;53.602;11.418;2023-04-01T03:30:25;99370.00;;;10.55;100.00
3206;BME280;1615;53.602;11.418;2023-04-01T03:32:50;99341.53;;;10.39;100.00
3206;BME280;1615;53.602;11.418;2023-04-01T03:35:16;99346.72;;;10.23;100.00
3206;BME280;1615;53.602;11.418;2023-04-01T03:37:42;99317.09;;;10.00;100.00
3206;BME280;1615;53.602;11.418;2023-04-01T03:40:07;99349.78;;;10.22;100.00
3206;BME280;1615;53.602;11.418;2023-04-01T03:42:33;99349.00;;;10.04;100.00
3206;BME280;1615;53.602;11.418;2023-04-01T03:44:58;99355.28;;;10.05;100.00
3206;BME280;1615;53.602;11.418;2023-04-01T03:47:23;99358.50;;;10.07;100.00
3206;BME280;1615;53.602;11.418;2023-04-01T03:49:49;99359.31;;;10.07;100.00
3206;BME280;1615;53.602;11.418;2023-04-01T03:52:14;99368.81;;;10.10;100.00
3206;BME280;1615;53.602;11.418;2023-04-01T03:54:40;99365.25;;;10.18;100.00
3206;BME280;1615;53.602;11.418;2023-04-01T03:57:05;99372.84;;;10.12;100.00
3206;BME280;1615;53.602;11.418;2023-04-01T03:59:31;99373.31;;;10.14;100.00
3206;BME280;1615;53.602;11.418;2023-04-01T04:01:56;99371.53;;;10.01;100.00
3206;BME280;1615;53.602;11.418;2023-04-01T04:04:21;99372.66;;;9.92;100.00
3206;BME280;1615;53.602;11.418;2023-04-01T04:06:46;99387.47;;;9.82;100.00
3206;BME280;1615;53.602;11.418;2023-04-01T04:09:13;99394.38;;;9.71;100.00
3206;BME280;1615;53.602;11.418;2023-04-01T04:11:38;99392.78;;;9.70;100.00
3206;BME280;1615;53.602;11.418;2023-04-01T04:14:04;99392.16;;;9.73;100.00
3206;BME280;1615;53.602;11.418;2023-04-01T04:16:29;99402.91;;;9.70;100.00
3206;BME280;1615;53.602;11.418;2023-04-01T04:18:55;99397.78;;;9.60;100.00
3206;BME280;1615;53.602;11.418;2023-04-01T04:21:20;99286.03;;;8.94;100.00
3206;BME280;1615;53.602;11.418;2023-04-01T04:23:45;99406.59;;;9.48;100.00
3206;BME280;1615;53.602;11.418;2023-04-01T04:26:12;99247.34;;;8.53;100.00
3206;BME280;1615;53.602;11.418;2023-04-01T04:28:38;99410.94;;;9.58;100.00
3206;BME280;1615;53.602;11.418;2023-04-01T04:31:04;99260.22;;;8.61;100.00
3206;BME280;1615;53.602;11.418;2023-04-01T04:33:33;99420.59;;;9.64;100.00
3206;BME280;1615;53.602;11.418;2023-04-01T04:35:59;99426.72;;;9.61;100.00
3206;BME280;1615;53.602;11.418;2023-04-01T04:38:26;99424.31;;;9.51;100.00
3206;BME280;1615;53.602;11.418;2023-04-01T04:40:51;99421.25;;;9.44;100.00
3206;BME280;1615;53.602;11.418;2023-04-01T04:43:17;99493.78;;;9.41;100.00
3206;BME280;1615;53.602;11.418;2023-04-01T04:45:44;99443.56;;;9.29;100.00
3206;BME280;1615;53.602;11.418;2023-04-01T04:48:10;99446.44;;;9.24;100.00
3206;BME280;1615;53.602;11.418;2023-04-01T04:50:40;99438.84;;;9.21;100.00
3206;BME280;1615;53.602;11.418;2023-04-01T04:53:05;99449.94;;;9.24;100.00
3206;BME280;1615;53.602;11.418;2023-04-01T04:55:31;99445.56;;;9.15;100.00
3206;BME280;1615;53.602;11.418;2023-04-01T04:57:56;99449.44;;;9.14;100.00
3206;BME280;1615;53.602;11.418;2023-04-01T05:00:21;99448.59;;;9.05;100.00
3206;BME280;1615;53.602;11.418;2023-04-01T05:02:46;99449.09;;;9.07;100.00
3206;BME280;1615;53.602;11.418;2023-04-01T05:05:12;99451.03;;;9.15;100.00
3206;BME280;1615;53.602;11.418;2023-04-01T05:07:37;99476.34;;;9.20;100.00
3206;BME280;1615;53.602;11.418;2023-04-01T05:10:02;99466.56;;;9.28;100.00
3206;BME280;1615;53.602;11.418;2023-04-01T05:12:28;99466.63;;;9.14;100.00
3206;BME280;1615;53.602;11.418;2023-04-01T05:14:53;99467.44;;;9.15;100.00
3206;BME280;1615;53.602;11.418;2023-04-01T05:17:18;99467.44;;;9.15;100.00
3206;BME280;1615;53.602;11.418;2023-04-01T05:19:44;99459.72;;;9.17;100.00
3206;BME280;1615;53.602;11.418;2023-04-01T05:22:09;99468.56;;;9.14;100.00
3206;BME280;1615;53.602;11.418;2023-04-01T05:24:34;99482.16;;;8.97;100.00
3206;BME280;1615;53.602;11.418;2023-04-01T05:27:00;99474.19;;;9.09;100.00
3206;BME280;1615;53.602;11.418;2023-04-01T05:29:25;99319.41;;;8.13;100.00
3206;BME280;1615;53.602;11.418;2023-04-01T05:31:51;99479.59;;;9.00;100.00
3206;BME280;1615;53.602;11.418;2023-04-01T05:34:16;99488.59;;;9.01;100.00
3206;BME280;1615;53.602;11.418;2023-04-01T05:36:42;99488.44;;;8.97;100.00
3206;BME280;1615;53.602;11.418;2023-04-01T05:39:08;99490.19;;;8.93;100.00
3206;BME280;1615;53.602;11.418;2023-04-01T05:41:37;99496.56;;;8.89;100.00
3206;BME280;1615;53.602;11.418;2023-04-01T05:44:03;99472.25;;;8.79;100.00
3206;BME280;1615;53.602;11.418;2023-04-01T05:46:29;99439.50;;;8.57;100.00
3206;BME280;1615;53.602;11.418;2023-04-01T05:48:54;99504.28;;;8.87;100.00
3206;BME280;1615;53.602;11.418;2023-04-01T05:51:20;99499.81;;;8.91;100.00
3206;BME280;1615;53.602;11.418;2023-04-01T05:53:45;99500.91;;;8.90;100.00
3206;BME280;1615;53.602;11.418;2023-04-01T05:56:10;99502.81;;;8.81;100.00
3206;BME280;1615;53.602;11.418;2023-04-01T05:58:36;99503.00;;;8.84;100.00
3206;BME280;1615;53.602;11.418;2023-04-01T06:01:07;99519.88;;;8.86;100.00
3206;BME280;1615;53.602;11.418;2023-04-01T06:03:33;99508.75;;;8.83;100.00
3206;BME280;1615;53.602;11.418;2023-04-01T06:05:58;99504.25;;;8.78;100.00
3206;BME280;1615;53.602;11.418;2023-04-01T06:08:26;99511.13;;;8.76;100.00
3206;BME280;1615;53.602;11.418;2023-04-01T06:19:56;99527.72;;;8.79;100.00
3206;BME280;1615;53.602;11.418;2023-04-01T06:25:25;99531.88;;;8.77;100.00
3206;BME280;1615;53.602;11.418;2023-04-01T06:28:05;99529.00;;;8.82;100.00
3206;BME280;1615;53.602;11.418;2023-04-01T06:30:44;99536.09;;;8.83;100.00
3206;BME280;1615;53.602;11.418;2023-04-01T06:33:23;99537.88;;;8.87;100.00
3206;BME280;1615;53.602;11.418;2023-04-01T06:38:57;99550.19;;;9.29;100.00
3206;BME280;1615;53.602;11.418;2023-04-01T06:47:40;99581.16;;;8.94;100.00
3206;BME280;1615;53.602;11.418;2023-04-01T06:50:30;99568.28;;;8.86;100.00
3206;BME280;1615;53.602;11.418;2023-04-01T06:53:21;99568.88;;;8.83;100.00
3206;BME280;1615;53.602;11.418;2023-04-01T06:55:53;99510.88;;;8.42;100.00
3206;BME280;1615;53.602;11.418;2023-04-01T06:58:24;99410.84;;;8.02;100.00
3206;BME280;1615;53.602;11.418;2023-04-01T07:00:54;99573.97;;;8.98;100.00
3206;BME280;1615;53.602;11.418;2023-04-01T07:03:29;99560.19;;;8.81;100.00
3206;BME280;1615;53.602;11.418;2023-04-01T07:06:02;99588.38;;;8.90;100.00
3206;BME280;1615;53.602;11.418;2023-04-01T07:08:29;99592.09;;;8.94;100.00
3206;BME280;1615;53.602;11.418;2023-04-01T07:11:05;99589.66;;;8.92;100.00
3206;BME280;1615;53.602;11.418;2023-04-01T07:13:41;99483.03;;;8.31;100.00
3206;BME280;1615;53.602;11.418;2023-04-01T07:16:16;99595.19;;;9.01;100.00
3206;BME280;1615;53.602;11.418;2023-04-01T07:18:57;99587.63;;;8.98;100.00
3206;BME280;1615;53.602;11.418;2023-04-01T07:24:27;99598.69;;;8.93;100.00
3206;BME280;1615;53.602;11.418;2023-04-01T07:26:59;99601.91;;;8.95;100.00
3206;BME280;1615;53.602;11.418;2023-04-01T07:29:26;99614.66;;;8.99;100.00
3206;BME280;1615;53.602;11.418;2023-04-01T07:37:45;99615.84;;;9.07;100.00
3206;BME280;1615;53.602;11.418;2023-04-01T07:40:38;99623.47;;;9.18;100.00
3206;BME280;1615;53.602;11.418;2023-04-01T07:49:14;99635.13;;;9.32;100.00
3206;BME280;1615;53.602;11.418;2023-04-01T07:51:59;99634.97;;;9.29;100.00
3206;BME280;1615;53.602;11.418;2023-04-01T08:05:28;99668.69;;;9.24;100.00
3206;BME280;1615;53.602;11.418;2023-04-01T08:10:33;99669.94;;;9.18;100.00
3206;BME280;1615;53.602;11.418;2023-04-01T08:13:16;99673.97;;;9.21;100.00
3206;BME280;1615;53.602;11.418;2023-04-01T08:19:18;99681.19;;;9.17;100.00
3206;BME280;1615;53.602;11.418;2023-04-01T08:21:52;99522.78;;;8.24;100.00
3206;BME280;1615;53.602;11.418;2023-04-01T08:24:41;99687.28;;;9.36;100.00
3206;BME280;1615;53.602;11.418;2023-04-01T08:27:16;99695.25;;;9.24;100.00
3206;BME280;1615;53.602;11.418;2023-04-01T08:29:48;99690.56;;;9.24;100.00
3206;BME280;1615;53.602;11.418;2023-04-01T08:32:37;99699.84;;;9.37;100.00
3206;BME280;1615;53.602;11.418;2023-04-01T08:35:26;99699.94;;;9.10;100.00
3206;BME280;1615;53.602;11.418;2023-04-01T08:37:53;99703.44;;;9.24;100.00
3206;BME280;1615;53.602;11.418;2023-04-01T08:40:54;99713.72;;;9.05;100.00
3206;BME280;1615;53.602;11.418;2023-04-01T08:46:16;99707.03;;;9.11;100.00
3206;BME280;1615;53.602;11.418;2023-04-01T08:51:45;99718.50;;;9.35;100.00
3206;BME280;1615;53.602;11.418;2023-04-01T08:56:50;99725.22;;;9.29;100.00
3206;BME280;1615;53.602;11.418;2023-04-01T08:59:47;99716.94;;;9.42;100.00
3206;BME280;1615;53.602;11.418;2023-04-01T09:02:40;99606.09;;;8.57;100.00
3206;BME280;1615;53.602;11.418;2023-04-01T09:05:29;99587.69;;;8.27;100.00
3206;BME280;1615;53.602;11.418;2023-04-01T09:08:12;99732.47;;;9.33;100.00
3206;BME280;1615;53.602;11.418;2023-04-01T09:17:17;99740.72;;;9.42;100.00
3206;BME280;1615;53.602;11.418;2023-04-01T09:20:25;99746.03;;;9.38;100.00
3206;BME280;1615;53.602;11.418;2023-04-01T09:26:12;99756.72;;;9.26;100.00
3206;BME280;1615;53.602;11.418;2023-04-01T09:31:25;99765.47;;;9.37;100.00
3206;BME280;1615;53.602;11.418;2023-04-01T09:34:08;99772.38;;;9.34;100.00
3206;BME280;1615;53.602;11.418;2023-04-01T09:39:39;99750.53;;;9.21;100.00
3206;BME280;1615;53.602;11.418;2023-04-01T09:50:50;99766.16;;;9.42;100.00
3206;BME280;1615;53.602;11.418;2023-04-01T09:53:39;99795.38;;;9.55;100.00
3206;BME280;1615;53.602;11.418;2023-04-01T09:56:27;99763.31;;;9.25;100.00
3206;BME280;1615;53.602;11.418;2023-04-01T10:04:54;99813.22;;;9.53;100.00
3206;BME280;1615;53.602;11.418;2023-04-01T10:16:18;99820.22;;;9.23;100.00
3206;BME280;1615;53.602;11.418;2023-04-01T10:19:05;99828.06;;;9.03;100.00
3206;BME280;1615;53.602;11.418;2023-04-01T10:22:07;99832.69;;;9.02;100.00
3206;BME280;1615;53.602;11.418;2023-04-01T10:28:06;99844.34;;;9.08;100.00
3206;BME280;1615;53.602;11.418;2023-04-01T10:31:15;99844.03;;;9.23;100.00
3206;BME280;1615;53.602;11.418;2023-04-01T10:36:56;99822.19;;;8.96;100.00
3206;BME280;1615;53.602;11.418;2023-04-01T10:42:34;99853.44;;;9.17;100.00
3206;BME280;1615;53.602;11.418;2023-04-01T10:58:59;99883.94;;;9.24;100.00
3206;BME280;1615;53.602;11.418;2023-04-01T11:10:54;99891.94;;;9.07;100.00
3206;BME280;1615;53.602;11.418;2023-04-01T11:23:14;99911.19;;;9.02;100.00
3206;BME280;1615;53.602;11.418;2023-04-01T11:39:49;99931.81;;;8.81;100.00
3206;BME280;1615;53.602;11.418;2023-04-01T11:45:01;99947.59;;;8.84;100.00
3206;BME280;1615;53.602;11.418;2023-04-01T11:50:23;99940.41;;;8.88;100.00
3206;BME280;1615;53.602;11.418;2023-04-01T11:56:02;99949.34;;;8.80;100.00
3206;BME280;1615;53.602;11.418;2023-04-01T12:01:48;99956.50;;;8.76;100.00
3206;BME280;1615;53.602;11.418;2023-04-01T12:10:18;99974.19;;;8.33;100.00
3206;BME280;1615;53.602;11.418;2023-04-01T12:12:58;100008.28;;;8.35;100.00
3206;BME280;1615;53.602;11.418;2023-04-01T12:18:23;99986.31;;;8.59;100.00
3206;BME280;1615;53.602;11.418;2023-04-01T12:20:57;99986.41;;;8.54;100.00
3206;BME280;1615;53.602;11.418;2023-04-01T12:23:39;99986.97;;;8.51;100.00
3206;BME280;1615;53.602;11.418;2023-04-01T12:26:35;99999.09;;;8.45;100.00
3206;BME280;1615;53.602;11.418;2023-04-01T12:29:19;100011.50;;;8.56;100.00
3206;BME280;1615;53.602;11.418;2023-04-01T12:32:02;100006.03;;;8.56;100.00
3206;BME280;1615;53.602;11.418;2023-04-01T12:48:42;100026.78;;;8.20;100.00
3206;BME280;1615;53.602;11.418;2023-04-01T12:51:45;100032.84;;;8.17;100.00
3206;BME280;1615;53.602;11.418;2023-04-01T13:00:04;100049.31;;;8.30;100.00
3206;BME280;1615;53.602;11.418;2023-04-01T13:06:01;100046.88;;;8.47;100.00
3206;BME280;1615;53.602;11.418;2023-04-01T13:08:43;100063.03;;;8.44;100.00
3206;BME280;1615;53.602;11.418;2023-04-01T13:11:23;100060.06;;;8.59;100.00
3206;BME280;1615;53.602;11.418;2023-04-01T13:14:00;100061.78;;;8.55;100.00
3206;BME280;1615;53.602;11.418;2023-04-01T13:16:37;100072.91;;;8.40;100.00
3206;BME280;1615;53.602;11.418;2023-04-01T13:22:00;100072.38;;;8.19;100.00
3206;BME280;1615;53.602;11.418;2023-04-01T13:27:41;100085.16;;;8.24;100.00
3206;BME280;1615;53.602;11.418;2023-04-01T13:33:21;100100.00;;;8.36;100.00
3206;BME280;1615;53.602;11.418;2023-04-01T13:39:12;100101.13;;;8.35;100.00
3206;BME280;1615;53.602;11.418;2023-04-01T13:41:47;100105.84;;;8.30;100.00
3206;BME280;1615;53.602;11.418;2023-04-01T13:44:40;100113.06;;;8.39;100.00
3206;BME280;1615;53.602;11.418;2023-04-01T13:52:54;100120.88;;;8.27;100.00
3206;BME280;1615;53.602;11.418;2023-04-01T14:00:54;100128.63;;;8.20;100.00
3206;BME280;1615;53.602;11.418;2023-04-01T14:03:43;100126.97;;;8.19;100.00
3206;BME280;1615;53.602;11.418;2023-04-01T14:09:25;100154.63;;;8.13;100.00
3206;BME280;1615;53.602;11.418;2023-04-01T14:14:34;100153.44;;;8.24;100.00
3206;BME280;1615;53.602;11.418;2023-04-01T14:34:05;100196.66;;;7.65;100.00
3206;BME280;1615;53.602;11.418;2023-04-01T14:39:44;100184.75;;;7.79;100.00
3206;BME280;1615;53.602;11.418;2023-04-01T14:45:17;100191.16;;;7.70;100.00
3206;BME280;1615;53.602;11.418;2023-04-01T14:47:56;100188.50;;;7.60;100.00
3206;BME280;1615;53.602;11.418;2023-04-01T14:50:28;100198.31;;;7.61;100.00
3206;BME280;1615;53.602;11.418;2023-04-01T14:53:22;100211.00;;;7.47;100.00
3206;BME280;1615;53.602;11.418;2023-04-01T14:55:52;100228.75;;;7.44;100.00
3206;BME280;1615;53.602;11.418;2023-04-01T14:58:20;100230.38;;;7.45;100.00
3206;BME280;1615;53.602;11.418;2023-04-01T15:01:11;100218.41;;;7.41;100.00
3206;BME280;1615;53.602;11.418;2023-04-01T15:17:55;100236.16;;;7.39;100.00
3206;BME280;1615;53.602;11.418;2023-04-01T15:29:40;100280.16;;;7.22;100.00
3206;BME280;1615;53.602;11.418;2023-04-01T15:32:17;100272.84;;;7.18;100.00
3206;BME280;1615;53.602;11.418;2023-04-01T15:34:55;100276.84;;;7.30;100.00
3206;BME280;1615;53.602;11.418;2023-04-01T15:40:32;100283.81;;;7.08;100.00
3206;BME280;1615;53.602;11.418;2023-04-01T15:45:58;100287.34;;;7.13;100.00
3206;BME280;1615;53.602;11.418;2023-04-01T15:48:30;100285.88;;;7.26;100.00
3206;BME280;1615;53.602;11.418;2023-04-01T15:51:15;100296.78;;;7.26;100.00
3206;BME280;1615;53.602;11.418;2023-04-01T16:05:16;100327.50;;;7.36;100.00
3206;BME280;1615;53.602;11.418;2023-04-01T16:14:07;100333.88;;;7.22;100.00
3206;BME280;1615;53.602;11.418;2023-04-01T16:19:28;100339.38;;;7.12;100.00
3206;BME280;1615;53.602;11.418;2023-04-01T16:22:34;100361.19;;;7.12;100.00
3206;BME280;1615;53.602;11.418;2023-04-01T16:28:24;100354.31;;;7.24;100.00
3206;BME280;1615;53.602;11.418;2023-04-01T16:33:51;100378.66;;;7.06;100.00
3206;BME280;1615;53.602;11.418;2023-04-01T16:36:28;100375.34;;;7.14;100.00
3206;BME280;1615;53.602;11.418;2023-04-01T16:41:51;100141.03;;;5.53;100.00
3206;BME280;1615;53.602;11.418;2023-04-01T16:44:25;100394.38;;;7.24;100.00
3206;BME280;1615;53.602;11.418;2023-04-01T16:46:56;100363.94;;;7.07;100.00
3206;BME280;1615;53.602;11.418;2023-04-01T16:49:28;100392.44;;;7.34;100.00
3206;BME280;1615;53.602;11.418;2023-04-01T16:53:08;100378.38;;;7.12;100.00
3206;BME280;1615;53.602;11.418;2023-04-01T16:55:18;100418.41;;;7.17;100.00
3206;BME280;1615;53.602;11.418;2023-04-01T16:57:56;100440.44;;;7.25;100.00
3206;BME280;1615;53.602;11.418;2023-04-01T17:00:49;100300.28;;;6.14;100.00
3206;BME280;1615;53.602;11.418;2023-04-01T17:03:26;100433.97;;;7.06;100.00
3206;BME280;1615;53.602;11.418;2023-04-01T17:05:58;100429.59;;;7.10;100.00
3206;BME280;1615;53.602;11.418;2023-04-01T17:11:19;100461.53;;;7.05;100.00
3206;BME280;1615;53.602;11.418;2023-04-01T17:19:45;100463.19;;;6.91;100.00
3206;BME280;1615;53.602;11.418;2023-04-01T17:22:33;100491.81;;;6.78;100.00
3206;BME280;1615;53.602;11.418;2023-04-01T17:27:42;100454.56;;;6.39;100.00
3206;BME280;1615;53.602;11.418;2023-04-01T17:30:14;100492.66;;;6.59;100.00
3206;BME280;1615;53.602;11.418;2023-04-01T17:35:54;100503.03;;;6.62;100.00
3206;BME280;1615;53.602;11.418;2023-04-01T17:38:39;100510.63;;;6.70;100.00
3206;BME280;1615;53.602;11.418;2023-04-01T17:41:42;100509.00;;;6.69;100.00
3206;BME280;1615;53.602;11.418;2023-04-01T17:54:41;100543.31;;;6.50;100.00
3206;BME280;1615;53.602;11.418;2023-04-01T18:00:25;100545.78;;;6.61;100.00
3206;BME280;1615;53.602;11.418;2023-04-01T18:03:16;100567.81;;;6.65;100.00
3206;BME280;1615;53.602;11.418;2023-04-01T18:11:42;100570.56;;;6.80;100.00
3206;BME280;1615;53.602;11.418;2023-04-01T18:14:48;100584.16;;;6.75;100.00
3206;BME280;1615;53.602;11.418;2023-04-01T18:17:21;100229.81;;;4.48;100.00
3206;BME280;1615;53.602;11.418;2023-04-01T18:20:30;100601.06;;;6.62;100.00
3206;BME280;1615;53.602;11.418;2023-04-01T18:23:00;100601.59;;;6.64;100.00
3206;BME280;1615;53.602;11.418;2023-04-01T18:25:41;100617.13;;;6.53;100.00
3206;BME280;1615;53.602;11.418;2023-04-01T18:33:48;100635.91;;;6.70;100.00
3206;BME280;1615;53.602;11.418;2023-04-01T18:36:24;100638.59;;;6.45;100.00
3206;BME280;1615;53.602;11.418;2023-04-01T18:39:07;100649.50;;;6.45;100.00
3206;BME280;1615;53.602;11.418;2023-04-01T18:47:27;100651.69;;;6.43;100.00
3206;BME280;1615;53.602;11.418;2023-04-01T18:50:11;100662.03;;;6.46;100.00
3206;BME280;1615;53.602;11.418;2023-04-01T18:52:45;100604.81;;;6.21;100.00
3206;BME280;1615;53.602;11.418;2023-04-01T18:55:39;100678.13;;;6.62;100.00
3206;BME280;1615;53.602;11.418;2023-04-01T18:58:24;100674.63;;;6.67;100.00
3206;BME280;1615;53.602;11.418;2023-04-01T19:03:57;100684.91;;;6.50;100.00
3206;BME280;1615;53.602;11.418;2023-04-01T19:06:35;100704.53;;;6.52;100.00
3206;BME280;1615;53.602;11.418;2023-04-01T19:10:00;100698.22;;;6.41;100.00
3206;BME280;1615;53.602;11.418;2023-04-01T19:12:11;100711.56;;;6.38;100.00
3206;BME280;1615;53.602;11.418;2023-04-01T19:15:02;100713.38;;;6.17;100.00
3206;BME280;1615;53.602;11.418;2023-04-01T19:20:38;100724.06;;;6.34;100.00
3206;BME280;1615;53.602;11.418;2023-04-01T19:25:58;100731.09;;;6.20;100.00
3206;BME280;1615;53.602;11.418;2023-04-01T19:28:38;100741.47;;;6.28;100.00
3206;BME280;1615;53.602;11.418;2023-04-01T19:43:01;100779.69;;;6.01;100.00
3206;BME280;1615;53.602;11.418;2023-04-01T19:51:31;100785.84;;;5.82;100.00
3206;BME280;1615;53.602;11.418;2023-04-01T20:04:57;100806.88;;;5.65;100.00
3206;BME280;1615;53.602;11.418;2023-04-01T20:08:00;100817.44;;;5.61;100.00
3206;BME280;1615;53.602;11.418;2023-04-01T20:10:35;100828.63;;;5.65;100.00
3206;BME280;1615;53.602;11.418;2023-04-01T20:13:36;100827.47;;;5.56;100.00
3206;BME280;1615;53.602;11.418;2023-04-01T20:16:09;100729.00;;;4.86;100.00
3206;BME280;1615;53.602;11.418;2023-04-01T20:18:52;100841.06;;;5.56;100.00
3206;BME280;1615;53.602;11.418;2023-04-01T20:26:41;100846.50;;;5.56;100.00
3206;BME280;1615;53.602;11.418;2023-04-01T20:32:22;100829.41;;;5.29;100.00
3206;BME280;1615;53.602;11.418;2023-04-01T20:37:48;100874.84;;;5.60;100.00
3206;BME280;1615;53.602;11.418;2023-04-01T20:48:24;100840.31;;;5.07;100.00
3206;BME280;1615;53.602;11.418;2023-04-01T20:51:07;100896.81;;;5.32;100.00
3206;BME280;1615;53.602;11.418;2023-04-01T20:53:43;100899.19;;;5.50;100.00
3206;BME280;1615;53.602;11.418;2023-04-01T21:07:38;100907.72;;;5.58;100.00